Kenai Municipal Airport
PAEN : rendu visible

Aérodrome :











RETROUVEZ-NOUS SUR...

 
LOGIN :

S'inscrire | Disclaimer

   EN    FR    IT 

 









Légende :    VFR   VFR Marginal   IFR   IFR Intensif   IFR Très Intensif
Visi : 
Plafond : 
>= 8 km
>= 3000ft
5 à 8 km
1000 à 3000 ft
1500m à 5 km
500 à 1000 ft
800 à 1500m
200 à 500 ft
< 800m
< 200 ft
Symboles :   Orages  Brouillard  Fortes neiges  Fortes précipitations  Vent > 20 kt






- Altitude de l'aérodrome : 99 ft
- Code IATA : ENA


PAEN - Kenai Municipal

DERNIER METAR :
  • 271153Z AUTO 06004KT 10SM CLR M17/M19 A2956 RMK AO2 SLP013 T11671189 11100 21172 53006 TSNO

METARs EXPIRÉS :
  • 271053Z AUTO 00000KT 10SM CLR M16/M18 A2955 RMK AO2 SLP010 T11561178 TSNO
  • 270953Z AUTO 00000KT 10SM CLR M15/M17 A2954 RMK AO2 SLP007 T11501172 TSNO

TAF PAEN
Valide du 27 à 12h jusqu'au 28 à 12h UTC


271135Z 2712/2812 03006KT P6SM SKC



MET'MAP, la Météo Aéronautique d'un coup d'oeil ! - Copyright ORBIFLY Décembre 2007 - Disclaimer

ORBIFLY MET'MAP TEAM :

Programmation & Développement : Alexandra Zaïnal
Sur une idée originale de : Baudouin d'Aumeries
Assistance à la programmation : Marc-Olivier Méhu
Soutien technique & logistique : Manuel Goepfert

Contact : metmap@orbifly.com




SOURCES & CREDITS :

   NOAA       Earth
Advisory